sensor_id;sensor_type;location;lat;lon;timestamp;pressure;altitude;pressure_sealevel;temperature;humidity
9672;BME280;4874;43.568;27.824;2022-08-01T00:00:05;98392.66;;;21.68;100.00
9672;BME280;4874;43.568;27.824;2022-08-01T00:02:34;98414.16;;;21.93;100.00
9672;BME280;4874;43.568;27.824;2022-08-01T00:05:00;98380.03;;;21.80;100.00
9672;BME280;4874;43.568;27.824;2022-08-01T00:07:27;98404.59;;;21.61;100.00
9672;BME280;4874;43.568;27.824;2022-08-01T00:09:54;98398.22;;;21.73;100.00
9672;BME280;4874;43.568;27.824;2022-08-01T00:12:21;98357.91;;;21.42;100.00
9672;BME280;4874;43.568;27.824;2022-08-01T00:14:48;98378.66;;;21.89;100.00
9672;BME280;4874;43.568;27.824;2022-08-01T00:17:15;98398.81;;;22.05;100.00
9672;BME280;4874;43.568;27.824;2022-08-01T00:19:42;98396.44;;;21.97;100.00
9672;BME280;4874;43.568;27.824;2022-08-01T00:22:08;98355.19;;;21.72;100.00
9672;BME280;4874;43.568;27.824;2022-08-01T00:24:35;98389.44;;;22.07;100.00
9672;BME280;4874;43.568;27.824;2022-08-01T00:27:02;98391.75;;;21.74;100.00
9672;BME280;4874;43.568;27.824;2022-08-01T00:29:29;98388.06;;;22.28;100.00
9672;BME280;4874;43.568;27.824;2022-08-01T00:32:15;98346.34;;;21.83;100.00
9672;BME280;4874;43.568;27.824;2022-08-01T00:34:42;98380.81;;;21.99;100.00
9672;BME280;4874;43.568;27.824;2022-08-01T00:37:09;98389.56;;;21.83;100.00
9672;BME280;4874;43.568;27.824;2022-08-01T00:39:39;98386.63;;;21.84;100.00
9672;BME280;4874;43.568;27.824;2022-08-01T00:42:07;98382.56;;;21.75;100.00
9672;BME280;4874;43.568;27.824;2022-08-01T00:44:34;98385.06;;;21.47;100.00
9672;BME280;4874;43.568;27.824;2022-08-01T00:47:02;98379.19;;;21.50;100.00
9672;BME280;4874;43.568;27.824;2022-08-01T00:49:28;98378.69;;;21.42;100.00
9672;BME280;4874;43.568;27.824;2022-08-01T00:51:55;98380.63;;;21.53;100.00
9672;BME280;4874;43.568;27.824;2022-08-01T00:54:24;98377.63;;;21.72;100.00
9672;BME280;4874;43.568;27.824;2022-08-01T00:56:51;98383.47;;;21.40;100.00
9672;BME280;4874;43.568;27.824;2022-08-01T00:59:21;98379.38;;;21.37;100.00
9672;BME280;4874;43.568;27.824;2022-08-01T01:01:48;98380.56;;;21.23;100.00
9672;BME280;4874;43.568;27.824;2022-08-01T01:04:16;98367.19;;;21.46;100.00
9672;BME280;4874;43.568;27.824;2022-08-01T01:09:52;98379.38;;;21.67;100.00
9672;BME280;4874;43.568;27.824;2022-08-01T01:15:22;98370.44;;;21.37;100.00
9672;BME280;4874;43.568;27.824;2022-08-01T01:18:10;98389.03;;;21.45;100.00
9672;BME280;4874;43.568;27.824;2022-08-01T01:20:41;98387.38;;;21.44;100.00
9672;BME280;4874;43.568;27.824;2022-08-01T01:23:28;98392.09;;;21.48;100.00
9672;BME280;4874;43.568;27.824;2022-08-01T01:31:26;98408.75;;;21.27;100.00
9672;BME280;4874;43.568;27.824;2022-08-01T01:33:54;98401.66;;;21.15;100.00
9672;BME280;4874;43.568;27.824;2022-08-01T01:36:25;98402.78;;;21.25;100.00
9672;BME280;4874;43.568;27.824;2022-08-01T01:38:54;98397.59;;;21.42;100.00
9672;BME280;4874;43.568;27.824;2022-08-01T01:41:23;98398.66;;;21.05;100.00
9672;BME280;4874;43.568;27.824;2022-08-01T01:43:51;98398.50;;;20.99;100.00
9672;BME280;4874;43.568;27.824;2022-08-01T01:46:22;98402.63;;;21.20;100.00
9672;BME280;4874;43.568;27.824;2022-08-01T01:48:51;98398.88;;;21.21;100.00
9672;BME280;4874;43.568;27.824;2022-08-01T01:51:21;98388.56;;;20.93;100.00
9672;BME280;4874;43.568;27.824;2022-08-01T01:53:49;98393.56;;;21.15;100.00
9672;BME280;4874;43.568;27.824;2022-08-01T01:56:18;98389.25;;;20.89;100.00
9672;BME280;4874;43.568;27.824;2022-08-01T01:58:53;98392.78;;;21.26;100.00
9672;BME280;4874;43.568;27.824;2022-08-01T02:01:23;98390.25;;;21.13;100.00
9672;BME280;4874;43.568;27.824;2022-08-01T02:04:04;98387.91;;;20.98;100.00
9672;BME280;4874;43.568;27.824;2022-08-01T02:06:31;98366.00;;;20.88;100.00
9672;BME280;4874;43.568;27.824;2022-08-01T02:09:00;98367.59;;;21.14;100.00
9672;BME280;4874;43.568;27.824;2022-08-01T02:11:28;98384.84;;;20.94;100.00
9672;BME280;4874;43.568;27.824;2022-08-01T02:14:01;98392.94;;;20.94;100.00
9672;BME280;4874;43.568;27.824;2022-08-01T02:16:31;98393.41;;;21.10;100.00
9672;BME280;4874;43.568;27.824;2022-08-01T02:19:00;98395.84;;;21.29;100.00
9672;BME280;4874;43.568;27.824;2022-08-01T02:21:30;98369.97;;;20.85;100.00
9672;BME280;4874;43.568;27.824;2022-08-01T02:24:12;98399.94;;;20.77;100.00
9672;BME280;4874;43.568;27.824;2022-08-01T02:26:43;98385.47;;;20.72;100.00
9672;BME280;4874;43.568;27.824;2022-08-01T02:29:22;98354.50;;;20.56;100.00
9672;BME280;4874;43.568;27.824;2022-08-01T02:31:53;98397.25;;;20.95;100.00
9672;BME280;4874;43.568;27.824;2022-08-01T02:34:22;98397.38;;;21.07;100.00
9672;BME280;4874;43.568;27.824;2022-08-01T02:36:54;98391.91;;;21.32;100.00
9672;BME280;4874;43.568;27.824;2022-08-01T02:39:23;98403.06;;;20.74;100.00
9672;BME280;4874;43.568;27.824;2022-08-01T02:41:57;98363.75;;;20.67;100.00
9672;BME280;4874;43.568;27.824;2022-08-01T02:44:29;98373.06;;;20.46;100.00
9672;BME280;4874;43.568;27.824;2022-08-01T02:46:59;98397.59;;;21.06;100.00
9672;BME280;4874;43.568;27.824;2022-08-01T02:49:35;98396.50;;;20.46;100.00
9672;BME280;4874;43.568;27.824;2022-08-01T02:52:06;98403.38;;;21.09;100.00
9672;BME280;4874;43.568;27.824;2022-08-01T02:54:35;98403.63;;;20.83;100.00
9672;BME280;4874;43.568;27.824;2022-08-01T02:57:04;98396.66;;;20.75;100.00
9672;BME280;4874;43.568;27.824;2022-08-01T02:59:34;98400.16;;;20.76;100.00
9672;BME280;4874;43.568;27.824;2022-08-01T03:02:04;98400.75;;;20.60;100.00
9672;BME280;4874;43.568;27.824;2022-08-01T03:04:33;98402.97;;;20.45;100.00
9672;BME280;4874;43.568;27.824;2022-08-01T03:07:03;98403.28;;;20.30;100.00
9672;BME280;4874;43.568;27.824;2022-08-01T03:09:34;98395.59;;;20.52;100.00
9672;BME280;4874;43.568;27.824;2022-08-01T03:12:04;98396.38;;;20.59;100.00
9672;BME280;4874;43.568;27.824;2022-08-01T03:14:35;98397.38;;;20.40;100.00
9672;BME280;4874;43.568;27.824;2022-08-01T03:17:04;98395.09;;;20.86;100.00
9672;BME280;4874;43.568;27.824;2022-08-01T03:19:33;98413.91;;;20.92;100.00
9672;BME280;4874;43.568;27.824;2022-08-01T03:22:01;98410.91;;;20.82;100.00
9672;BME280;4874;43.568;27.824;2022-08-01T03:24:33;98409.59;;;21.28;100.00
9672;BME280;4874;43.568;27.824;2022-08-01T03:27:02;98398.72;;;21.34;100.00
9672;BME280;4874;43.568;27.824;2022-08-01T03:29:29;98405.81;;;21.47;100.00
9672;BME280;4874;43.568;27.824;2022-08-01T03:32:00;98412.75;;;21.25;100.00
9672;BME280;4874;43.568;27.824;2022-08-01T03:34:28;98390.16;;;21.19;100.00
9672;BME280;4874;43.568;27.824;2022-08-01T03:39:29;98381.09;;;21.14;100.00
9672;BME280;4874;43.568;27.824;2022-08-01T03:42:04;98401.41;;;21.34;100.00
9672;BME280;4874;43.568;27.824;2022-08-01T03:44:35;98410.44;;;21.28;100.00
9672;BME280;4874;43.568;27.824;2022-08-01T03:47:07;98406.38;;;21.01;100.00
9672;BME280;4874;43.568;27.824;2022-08-01T03:49:41;98404.59;;;20.70;100.00
9672;BME280;4874;43.568;27.824;2022-08-01T03:52:09;98405.22;;;20.48;100.00
9672;BME280;4874;43.568;27.824;2022-08-01T03:54:40;98410.19;;;20.69;100.00
9672;BME280;4874;43.568;27.824;2022-08-01T03:57:08;98410.75;;;20.95;100.00
9672;BME280;4874;43.568;27.824;2022-08-01T03:59:57;98367.91;;;20.45;100.00
9672;BME280;4874;43.568;27.824;2022-08-01T04:02:28;98414.25;;;21.02;100.00
9672;BME280;4874;43.568;27.824;2022-08-01T04:04:55;98414.69;;;20.99;100.00
9672;BME280;4874;43.568;27.824;2022-08-01T04:07:26;98411.31;;;20.79;100.00
9672;BME280;4874;43.568;27.824;2022-08-01T04:09:53;98388.81;;;20.49;100.00
9672;BME280;4874;43.568;27.824;2022-08-01T04:12:21;98424.78;;;20.86;100.00
9672;BME280;4874;43.568;27.824;2022-08-01T04:14:48;98419.38;;;20.86;100.00
9672;BME280;4874;43.568;27.824;2022-08-01T04:17:18;98413.56;;;21.07;100.00
9672;BME280;4874;43.568;27.824;2022-08-01T04:19:45;98417.94;;;21.92;100.00
9672;BME280;4874;43.568;27.824;2022-08-01T04:22:14;98406.19;;;21.50;100.00
9672;BME280;4874;43.568;27.824;2022-08-01T04:24:42;98411.78;;;21.67;100.00
9672;BME280;4874;43.568;27.824;2022-08-01T04:27:19;98416.75;;;21.70;100.00
9672;BME280;4874;43.568;27.824;2022-08-01T04:30:08;98405.50;;;21.73;100.00
9672;BME280;4874;43.568;27.824;2022-08-01T04:32:38;98404.09;;;21.34;100.00
9672;BME280;4874;43.568;27.824;2022-08-01T04:35:08;98417.78;;;21.21;100.00
9672;BME280;4874;43.568;27.824;2022-08-01T04:37:49;98411.31;;;21.04;100.00
9672;BME280;4874;43.568;27.824;2022-08-01T04:40:17;98415.91;;;21.22;100.00
9672;BME280;4874;43.568;27.824;2022-08-01T04:42:49;98409.13;;;21.31;100.00
9672;BME280;4874;43.568;27.824;2022-08-01T04:45:16;98415.75;;;21.17;100.00
9672;BME280;4874;43.568;27.824;2022-08-01T04:47:43;98409.44;;;21.41;100.00
9672;BME280;4874;43.568;27.824;2022-08-01T04:50:11;98409.69;;;20.96;100.00
9672;BME280;4874;43.568;27.824;2022-08-01T04:52:38;98360.16;;;21.27;100.00
9672;BME280;4874;43.568;27.824;2022-08-01T04:55:05;98396.91;;;21.76;100.00
9672;BME280;4874;43.568;27.824;2022-08-01T04:57:37;98381.25;;;21.19;100.00
9672;BME280;4874;43.568;27.824;2022-08-01T05:00:04;98393.81;;;21.43;100.00
9672;BME280;4874;43.568;27.824;2022-08-01T05:02:32;98390.28;;;21.60;100.00
9672;BME280;4874;43.568;27.824;2022-08-01T05:04:59;98398.19;;;21.26;100.00
9672;BME280;4874;43.568;27.824;2022-08-01T05:07:26;98385.44;;;21.51;100.00
9672;BME280;4874;43.568;27.824;2022-08-01T05:09:53;98391.00;;;21.67;100.00
9672;BME280;4874;43.568;27.824;2022-08-01T05:12:20;98393.16;;;21.77;100.00
9672;BME280;4874;43.568;27.824;2022-08-01T05:14:47;98391.34;;;21.41;100.00
9672;BME280;4874;43.568;27.824;2022-08-01T05:17:13;98387.38;;;21.44;100.00
9672;BME280;4874;43.568;27.824;2022-08-01T05:19:40;98394.09;;;22.00;100.00
9672;BME280;4874;43.568;27.824;2022-08-01T05:22:08;98405.69;;;21.42;100.00
9672;BME280;4874;43.568;27.824;2022-08-01T05:24:37;98395.06;;;21.58;100.00
9672;BME280;4874;43.568;27.824;2022-08-01T05:27:06;98401.13;;;21.90;100.00
9672;BME280;4874;43.568;27.824;2022-08-01T05:29:34;98369.84;;;21.35;100.00
9672;BME280;4874;43.568;27.824;2022-08-01T05:32:03;98374.03;;;21.31;100.00
9672;BME280;4874;43.568;27.824;2022-08-01T05:34:30;98401.75;;;22.03;100.00
9672;BME280;4874;43.568;27.824;2022-08-01T05:36:57;98384.34;;;21.52;100.00
9672;BME280;4874;43.568;27.824;2022-08-01T05:39:23;98370.31;;;21.61;100.00
9672;BME280;4874;43.568;27.824;2022-08-01T05:41:50;98389.13;;;21.68;100.00
9672;BME280;4874;43.568;27.824;2022-08-01T05:44:17;98388.38;;;21.79;100.00
9672;BME280;4874;43.568;27.824;2022-08-01T05:46:44;98392.16;;;22.19;100.00
9672;BME280;4874;43.568;27.824;2022-08-01T05:49:10;98383.16;;;22.60;100.00
9672;BME280;4874;43.568;27.824;2022-08-01T05:51:37;98393.19;;;22.71;100.00
9672;BME280;4874;43.568;27.824;2022-08-01T05:54:04;98361.41;;;22.78;100.00
9672;BME280;4874;43.568;27.824;2022-08-01T05:56:31;98388.94;;;22.63;100.00
9672;BME280;4874;43.568;27.824;2022-08-01T05:58:58;98388.59;;;22.83;100.00
9672;BME280;4874;43.568;27.824;2022-08-01T06:01:25;98390.31;;;23.12;100.00
9672;BME280;4874;43.568;27.824;2022-08-01T06:03:51;98385.50;;;23.54;100.00
9672;BME280;4874;43.568;27.824;2022-08-01T06:06:21;98397.19;;;23.54;100.00
9672;BME280;4874;43.568;27.824;2022-08-01T06:08:50;98397.47;;;24.25;100.00
9672;BME280;4874;43.568;27.824;2022-08-01T06:11:18;98400.28;;;23.74;100.00
9672;BME280;4874;43.568;27.824;2022-08-01T06:13:45;98390.66;;;23.67;100.00
9672;BME280;4874;43.568;27.824;2022-08-01T06:16:13;98370.69;;;23.56;100.00
9672;BME280;4874;43.568;27.824;2022-08-01T06:18:40;98377.63;;;24.08;100.00
9672;BME280;4874;43.568;27.824;2022-08-01T06:21:07;98372.19;;;24.08;100.00
9672;BME280;4874;43.568;27.824;2022-08-01T06:23:33;98380.53;;;24.18;100.00
9672;BME280;4874;43.568;27.824;2022-08-01T06:26:00;98376.63;;;23.98;100.00
9672;BME280;4874;43.568;27.824;2022-08-01T06:28:28;98386.78;;;24.52;100.00
9672;BME280;4874;43.568;27.824;2022-08-01T06:30:55;98372.31;;;24.47;100.00
9672;BME280;4874;43.568;27.824;2022-08-01T06:33:21;98382.03;;;23.70;100.00
9672;BME280;4874;43.568;27.824;2022-08-01T06:35:48;98380.94;;;23.82;100.00
9672;BME280;4874;43.568;27.824;2022-08-01T06:38:15;98376.34;;;24.11;100.00
9672;BME280;4874;43.568;27.824;2022-08-01T06:40:42;98371.97;;;23.82;100.00
9672;BME280;4874;43.568;27.824;2022-08-01T06:43:09;98373.44;;;24.34;100.00
9672;BME280;4874;43.568;27.824;2022-08-01T06:45:39;98380.50;;;25.01;100.00
9672;BME280;4874;43.568;27.824;2022-08-01T06:48:06;98369.47;;;24.70;100.00
9672;BME280;4874;43.568;27.824;2022-08-01T06:50:33;98369.63;;;25.01;100.00
9672;BME280;4874;43.568;27.824;2022-08-01T06:53:02;98362.16;;;25.51;100.00
9672;BME280;4874;43.568;27.824;2022-08-01T06:55:29;98370.97;;;25.20;100.00
9672;BME280;4874;43.568;27.824;2022-08-01T06:57:56;98367.28;;;25.48;100.00
9672;BME280;4874;43.568;27.824;2022-08-01T07:00:24;98366.53;;;25.79;100.00
9672;BME280;4874;43.568;27.824;2022-08-01T07:02:53;98361.91;;;25.53;100.00
9672;BME280;4874;43.568;27.824;2022-08-01T07:05:20;98371.56;;;25.66;100.00
9672;BME280;4874;43.568;27.824;2022-08-01T07:07:47;98353.66;;;25.05;100.00
9672;BME280;4874;43.568;27.824;2022-08-01T07:10:14;98360.75;;;25.49;100.00
9672;BME280;4874;43.568;27.824;2022-08-01T07:12:41;98329.84;;;25.82;100.00
9672;BME280;4874;43.568;27.824;2022-08-01T07:15:09;98341.50;;;25.50;100.00
9672;BME280;4874;43.568;27.824;2022-08-01T07:17:41;98347.34;;;25.91;99.50
9672;BME280;4874;43.568;27.824;2022-08-01T07:20:10;98354.16;;;26.51;96.93
9672;BME280;4874;43.568;27.824;2022-08-01T07:22:38;98351.56;;;26.35;98.97
9672;BME280;4874;43.568;27.824;2022-08-01T07:25:05;98346.72;;;25.57;96.72
9672;BME280;4874;43.568;27.824;2022-08-01T07:27:32;98357.16;;;26.18;98.70
9672;BME280;4874;43.568;27.824;2022-08-01T07:30:00;98354.59;;;26.07;95.20
9672;BME280;4874;43.568;27.824;2022-08-01T07:32:27;98351.25;;;26.00;94.35
9672;BME280;4874;43.568;27.824;2022-08-01T07:34:56;98350.09;;;25.96;92.98
9672;BME280;4874;43.568;27.824;2022-08-01T07:37:23;98334.53;;;25.86;91.40
9672;BME280;4874;43.568;27.824;2022-08-01T07:40:10;98304.44;;;25.44;93.22
9672;BME280;4874;43.568;27.824;2022-08-01T07:42:37;98278.47;;;25.53;93.77
9672;BME280;4874;43.568;27.824;2022-08-01T07:45:04;98352.50;;;26.14;96.87
9672;BME280;4874;43.568;27.824;2022-08-01T07:47:30;98356.28;;;26.44;89.81
9672;BME280;4874;43.568;27.824;2022-08-01T07:50:01;98351.50;;;25.98;87.19
9672;BME280;4874;43.568;27.824;2022-08-01T07:52:28;98362.47;;;26.35;88.51
9672;BME280;4874;43.568;27.824;2022-08-01T07:54:57;98351.19;;;25.68;87.85
9672;BME280;4874;43.568;27.824;2022-08-01T07:57:25;98358.31;;;26.27;88.50
9672;BME280;4874;43.568;27.824;2022-08-01T07:59:51;98357.19;;;26.23;91.18
9672;BME280;4874;43.568;27.824;2022-08-01T08:02:18;98351.00;;;26.33;87.20
9672;BME280;4874;43.568;27.824;2022-08-01T08:04:45;98359.28;;;26.43;88.30
9672;BME280;4874;43.568;27.824;2022-08-01T08:07:14;98345.06;;;26.36;85.50
9672;BME280;4874;43.568;27.824;2022-08-01T08:09:41;98341.06;;;26.85;89.37
9672;BME280;4874;43.568;27.824;2022-08-01T08:12:08;98351.94;;;26.48;88.77
9672;BME280;4874;43.568;27.824;2022-08-01T08:14:35;98333.63;;;26.34;89.86
9672;BME280;4874;43.568;27.824;2022-08-01T08:17:02;98347.00;;;26.40;90.69
9672;BME280;4874;43.568;27.824;2022-08-01T08:19:29;98354.56;;;26.33;85.88
9672;BME280;4874;43.568;27.824;2022-08-01T08:22:03;98356.34;;;26.91;89.29
9672;BME280;4874;43.568;27.824;2022-08-01T08:24:30;98348.59;;;26.36;86.00
9672;BME280;4874;43.568;27.824;2022-08-01T08:26:58;98360.97;;;26.54;83.17
9672;BME280;4874;43.568;27.824;2022-08-01T08:29:26;98367.81;;;26.93;80.87
9672;BME280;4874;43.568;27.824;2022-08-01T08:31:54;98360.06;;;26.75;78.21
9672;BME280;4874;43.568;27.824;2022-08-01T08:34:23;98367.50;;;27.36;79.96
9672;BME280;4874;43.568;27.824;2022-08-01T08:36:50;98365.09;;;26.98;81.03
9672;BME280;4874;43.568;27.824;2022-08-01T08:39:18;98369.28;;;27.77;81.08
9672;BME280;4874;43.568;27.824;2022-08-01T08:41:46;98352.91;;;27.11;80.06
9672;BME280;4874;43.568;27.824;2022-08-01T08:44:15;98374.75;;;26.74;81.95
9672;BME280;4874;43.568;27.824;2022-08-01T08:46:44;98369.59;;;26.78;82.55
9672;BME280;4874;43.568;27.824;2022-08-01T08:49:15;98345.28;;;27.08;82.09
9672;BME280;4874;43.568;27.824;2022-08-01T08:51:42;98365.50;;;26.70;82.78
9672;BME280;4874;43.568;27.824;2022-08-01T08:54:11;98370.25;;;27.41;83.09
9672;BME280;4874;43.568;27.824;2022-08-01T08:56:40;98367.25;;;27.38;85.77
9672;BME280;4874;43.568;27.824;2022-08-01T08:59:07;98333.53;;;27.02;81.92
9672;BME280;4874;43.568;27.824;2022-08-01T09:01:34;98360.81;;;27.69;79.37
9672;BME280;4874;43.568;27.824;2022-08-01T09:04:05;98353.53;;;27.28;79.69
9672;BME280;4874;43.568;27.824;2022-08-01T09:06:32;98357.56;;;27.15;81.37
9672;BME280;4874;43.568;27.824;2022-08-01T09:08:59;98353.72;;;27.63;77.49
9672;BME280;4874;43.568;27.824;2022-08-01T09:11:26;98366.44;;;27.37;81.04
9672;BME280;4874;43.568;27.824;2022-08-01T09:14:08;98364.81;;;27.41;79.30
9672;BME280;4874;43.568;27.824;2022-08-01T09:16:40;98377.13;;;27.02;75.71
9672;BME280;4874;43.568;27.824;2022-08-01T09:19:19;98377.88;;;27.39;77.76
9672;BME280;4874;43.568;27.824;2022-08-01T09:22:08;98374.13;;;27.55;77.88
9672;BME280;4874;43.568;27.824;2022-08-01T09:24:36;98368.25;;;27.89;80.94
9672;BME280;4874;43.568;27.824;2022-08-01T09:27:20;98345.31;;;27.90;75.09
9672;BME280;4874;43.568;27.824;2022-08-01T09:29:48;98367.69;;;27.87;76.06
9672;BME280;4874;43.568;27.824;2022-08-01T09:32:26;98355.63;;;27.72;79.95
9672;BME280;4874;43.568;27.824;2022-08-01T09:34:56;98353.22;;;27.14;81.98
9672;BME280;4874;43.568;27.824;2022-08-01T09:37:30;98384.63;;;26.80;82.76
9672;BME280;4874;43.568;27.824;2022-08-01T09:40:03;98387.09;;;27.28;77.66
9672;BME280;4874;43.568;27.824;2022-08-01T09:42:30;98375.53;;;27.06;75.54
9672;BME280;4874;43.568;27.824;2022-08-01T09:44:56;98360.31;;;26.69;82.43
9672;BME280;4874;43.568;27.824;2022-08-01T09:47:39;98366.25;;;27.64;86.34
9672;BME280;4874;43.568;27.824;2022-08-01T09:50:06;98344.69;;;27.57;77.97
9672;BME280;4874;43.568;27.824;2022-08-01T09:52:36;98369.25;;;27.57;77.67
9672;BME280;4874;43.568;27.824;2022-08-01T09:55:05;98359.09;;;27.48;80.65
9672;BME280;4874;43.568;27.824;2022-08-01T09:57:32;98331.38;;;27.81;71.48
9672;BME280;4874;43.568;27.824;2022-08-01T10:00:00;98351.38;;;28.32;69.61
9672;BME280;4874;43.568;27.824;2022-08-01T10:02:38;98361.78;;;28.30;72.69
9672;BME280;4874;43.568;27.824;2022-08-01T10:05:07;98364.09;;;27.76;80.71
9672;BME280;4874;43.568;27.824;2022-08-01T10:07:36;98362.66;;;27.53;85.25
9672;BME280;4874;43.568;27.824;2022-08-01T10:10:13;98357.84;;;27.80;81.58
9672;BME280;4874;43.568;27.824;2022-08-01T10:12:42;98351.75;;;27.53;80.85
9672;BME280;4874;43.568;27.824;2022-08-01T10:15:10;98330.31;;;27.87;80.29
9672;BME280;4874;43.568;27.824;2022-08-01T10:17:39;98355.72;;;28.03;80.57
9672;BME280;4874;43.568;27.824;2022-08-01T10:20:19;98353.13;;;27.51;85.85
9672;BME280;4874;43.568;27.824;2022-08-01T10:22:47;98365.59;;;26.85;90.50
9672;BME280;4874;43.568;27.824;2022-08-01T10:25:17;98357.91;;;26.77;90.44
9672;BME280;4874;43.568;27.824;2022-08-01T10:28:13;98326.06;;;27.34;87.66
9672;BME280;4874;43.568;27.824;2022-08-01T10:30:44;98365.88;;;27.35;85.88
9672;BME280;4874;43.568;27.824;2022-08-01T10:33:11;98329.00;;;27.28;84.47
9672;BME280;4874;43.568;27.824;2022-08-01T10:35:40;98355.19;;;27.96;83.45
9672;BME280;4874;43.568;27.824;2022-08-01T10:38:11;98352.75;;;28.14;83.02
9672;BME280;4874;43.568;27.824;2022-08-01T10:40:40;98352.19;;;27.92;82.94
9672;BME280;4874;43.568;27.824;2022-08-01T10:43:10;98351.50;;;27.55;85.17
9672;BME280;4874;43.568;27.824;2022-08-01T10:45:38;98349.34;;;27.72;83.20
9672;BME280;4874;43.568;27.824;2022-08-01T10:50:44;98348.31;;;27.88;80.29
9672;BME280;4874;43.568;27.824;2022-08-01T10:53:16;98356.16;;;27.59;86.99
9672;BME280;4874;43.568;27.824;2022-08-01T10:55:59;98359.16;;;27.01;95.29
9672;BME280;4874;43.568;27.824;2022-08-01T10:58:33;98310.09;;;26.96;94.94
9672;BME280;4874;43.568;27.824;2022-08-01T11:01:25;98352.94;;;27.83;91.29
9672;BME280;4874;43.568;27.824;2022-08-01T11:06:39;98357.66;;;28.47;74.20
9672;BME280;4874;43.568;27.824;2022-08-01T11:12:03;98336.66;;;28.08;84.98
9672;BME280;4874;43.568;27.824;2022-08-01T11:14:33;98339.91;;;28.10;80.34
9672;BME280;4874;43.568;27.824;2022-08-01T11:17:41;98339.09;;;28.24;85.56
9672;BME280;4874;43.568;27.824;2022-08-01T11:26:12;98331.19;;;28.18;87.07
9672;BME280;4874;43.568;27.824;2022-08-01T11:28:27;98329.25;;;28.23;86.88
9672;BME280;4874;43.568;27.824;2022-08-01T11:38:38;98322.63;;;27.79;84.65
9672;BME280;4874;43.568;27.824;2022-08-01T11:41:22;98312.91;;;28.28;98.53
9672;BME280;4874;43.568;27.824;2022-08-01T11:44:17;98315.63;;;28.43;91.51
9672;BME280;4874;43.568;27.824;2022-08-01T11:52:11;98311.53;;;28.26;90.27
9672;BME280;4874;43.568;27.824;2022-08-01T11:57:21;98312.63;;;28.40;94.29
9672;BME280;4874;43.568;27.824;2022-08-01T11:59:54;98310.97;;;27.99;94.26
9672;BME280;4874;43.568;27.824;2022-08-01T12:02:31;98304.41;;;27.95;92.92
9672;BME280;4874;43.568;27.824;2022-08-01T12:05:06;98310.94;;;28.49;91.35
9672;BME280;4874;43.568;27.824;2022-08-01T12:07:35;98302.22;;;28.62;91.35
9672;BME280;4874;43.568;27.824;2022-08-01T12:10:05;98307.41;;;28.63;91.42
9672;BME280;4874;43.568;27.824;2022-08-01T12:12:34;98294.28;;;28.70;91.66
9672;BME280;4874;43.568;27.824;2022-08-01T12:15:06;98307.69;;;28.42;95.28
9672;BME280;4874;43.568;27.824;2022-08-01T12:20:21;98295.63;;;28.88;98.53
9672;BME280;4874;43.568;27.824;2022-08-01T12:22:53;98301.44;;;28.21;98.49
9672;BME280;4874;43.568;27.824;2022-08-01T12:25:20;98300.03;;;27.78;98.82
9672;BME280;4874;43.568;27.824;2022-08-01T12:27:48;98291.31;;;28.12;100.00
9672;BME280;4874;43.568;27.824;2022-08-01T12:30:21;98303.59;;;27.94;97.15
9672;BME280;4874;43.568;27.824;2022-08-01T12:32:53;98297.31;;;28.34;95.48
9672;BME280;4874;43.568;27.824;2022-08-01T12:35:27;98291.03;;;28.48;93.81
9672;BME280;4874;43.568;27.824;2022-08-01T12:38:01;98295.13;;;28.31;94.30
9672;BME280;4874;43.568;27.824;2022-08-01T12:40:31;98254.16;;;28.56;95.77
9672;BME280;4874;43.568;27.824;2022-08-01T12:43:01;98303.84;;;28.83;90.44
9672;BME280;4874;43.568;27.824;2022-08-01T12:45:37;98286.03;;;28.85;87.98
9672;BME280;4874;43.568;27.824;2022-08-01T12:48:20;98284.97;;;28.86;83.54
9672;BME280;4874;43.568;27.824;2022-08-01T12:50:48;98280.69;;;28.50;84.20
9672;BME280;4874;43.568;27.824;2022-08-01T12:53:15;98283.13;;;28.37;80.78
9672;BME280;4874;43.568;27.824;2022-08-01T12:55:48;98282.84;;;28.63;87.14
9672;BME280;4874;43.568;27.824;2022-08-01T12:58:24;98284.16;;;28.76;86.31
9672;BME280;4874;43.568;27.824;2022-08-01T13:01:05;98273.53;;;28.44;87.27
9672;BME280;4874;43.568;27.824;2022-08-01T13:03:32;98285.75;;;28.87;90.67
9672;BME280;4874;43.568;27.824;2022-08-01T13:05:59;98283.63;;;28.44;92.41
9672;BME280;4874;43.568;27.824;2022-08-01T13:08:31;98281.47;;;28.61;95.90
9672;BME280;4874;43.568;27.824;2022-08-01T13:11:07;98280.63;;;28.40;92.95
9672;BME280;4874;43.568;27.824;2022-08-01T13:13:48;98294.28;;;28.70;90.76
9672;BME280;4874;43.568;27.824;2022-08-01T13:16:18;98284.75;;;28.53;95.82
9672;BME280;4874;43.568;27.824;2022-08-01T13:18:56;98291.44;;;29.01;97.29
9672;BME280;4874;43.568;27.824;2022-08-01T13:21:28;98285.78;;;28.82;95.51
9672;BME280;4874;43.568;27.824;2022-08-01T13:26:56;98291.47;;;27.40;100.00
9672;BME280;4874;43.568;27.824;2022-08-01T13:29:33;98304.25;;;27.29;100.00
9672;BME280;4874;43.568;27.824;2022-08-01T13:32:21;98306.53;;;27.67;100.00
9672;BME280;4874;43.568;27.824;2022-08-01T13:35:05;98296.75;;;27.87;100.00
9672;BME280;4874;43.568;27.824;2022-08-01T13:37:32;98307.69;;;27.92;100.00
9672;BME280;4874;43.568;27.824;2022-08-01T13:39:59;98306.56;;;27.83;100.00
9672;BME280;4874;43.568;27.824;2022-08-01T13:42:26;98298.66;;;27.81;100.00
9672;BME280;4874;43.568;27.824;2022-08-01T13:44:55;98310.09;;;27.78;100.00
9672;BME280;4874;43.568;27.824;2022-08-01T13:47:22;98308.44;;;27.77;100.00
9672;BME280;4874;43.568;27.824;2022-08-01T13:49:54;98318.56;;;27.71;100.00
9672;BME280;4874;43.568;27.824;2022-08-01T13:52:21;98316.91;;;27.70;100.00
9672;BME280;4874;43.568;27.824;2022-08-01T13:54:48;98325.63;;;27.67;100.00
9672;BME280;4874;43.568;27.824;2022-08-01T13:57:14;98325.03;;;27.45;100.00
9672;BME280;4874;43.568;27.824;2022-08-01T13:59:42;98322.34;;;27.65;100.00
9672;BME280;4874;43.568;27.824;2022-08-01T14:02:09;98314.13;;;27.55;100.00
9672;BME280;4874;43.568;27.824;2022-08-01T14:04:36;98325.09;;;27.70;100.00
9672;BME280;4874;43.568;27.824;2022-08-01T14:07:02;98327.31;;;27.84;100.00
9672;BME280;4874;43.568;27.824;2022-08-01T14:09:33;98330.53;;;27.70;100.00